Inscriptos

3000 Electronico
Fecha Serie Viento Presión Humedad Temperatura
03-04-2016 Final_A
Andarivel Nombre Dia Mes Año Equipo Mejor Marca
396 Pensa Natalio 19 8 1989 LAPRI - 08.11.43
376 Espinosa Freddy 29 7 1986 COL - 08.16.41
270 Bazan Argandoña Mario Alfonso 1 9 1987 PER - 08.25.17
381 Biedma Rodrigo 24 6 1983 ARG - 08.25.45
87 Monin Ezequiel Alejandro 10 09 1987 JM AAVCH 08.25.63
5 Gregorio Eduardo 4 1 1989 ATE - 08.26.79
255 Cuestas Nicolas 8 12 1986 ENP - 08.27.13
363 Vinicios Rocha Veloso 24 3 1996 LUASA - 08.27.56
362 Willian Silva Dos Santos 4 4 1995 LUASA - 08.28.00
397 Stutz Jorge 15 1 1988 TORDI - 08.30.38
355 Ioran Etchechury 24 1 1993 SOGIP - 08.30.90
269 Zamora Cristhian 15 1 1991 LGA - 08.31.96
252 De Los Santos Alexander 22 9 1985 FAM - 08.35.48
95 Moreira Mariano 6 1 1998 FAM - 08.38.05
370 Tejera Jhonatan 13 1 1988 CAP - 08.38.56
371 Cassina Steven 15 5 1995 CAP - 08.39.77
378 Niestroj Alan 25 9 1992 TALAR - 08.41.52
86 Fernandez Guerrero Jose Ignacio 20 3 1987 EMUNE 08.45.85
398 Larrosa Daniel 16 2 1991 AND - 08.47.91
204 Costa Marco Rogerio 27 3 1985 BRA - 08.48.89
272 Castillo Mauricio 28 4 1995 MRUN - 08.54.80
256 Caceres Oscar 2 2 1994 MyC - 08.55.77
258 Mendez Rodrigo 22 5 1995 NAC - 08.55.78
208 Gonzalez Nicolas 28 5 1990 ATE - 08.58.07
263 Johnson Carlos 7 6 1997 VyR - 08.58.45
343 Ichiparra Yonathan 4 8 1996 PER - 09.00.00
361 Rodriguez Matias 20 10 1999 MYC - 09.02.35
360 Rodriguez Bruno 20 10 1999 MyC - 09.03.43
89 Scalise Enzo-sin Dni- 1 1 1900 JM - 09.09.12
389 Segovia Cristian 20 12 1995 ISAAC - 09.09.61
88 Temperan Ezequiel 28 12 1996 JM - 09.09.87
356 Yuri Fajardo 23 9 1986 SOGIP - 09.45.55
382 Tello Ezequiel 27 9 1991 RAFA - 09.58.32
358 Mattheus S. Porto 29 7 1995 SOGIP - 10.00.00